Time;durP1;ratioP1;P1;durP2;ratioP2;P2;SDS_P1;SDS_P2;PMS_P1;PMS_P2;Temp;Humidity;BMP_temperature;BMP_pressure;BME280_temperature;BME280_humidity;BME280_pressure;Samples;Min_cycle;Max_cycle;Signal;HPM_P1;HPM_P2
2023/03/05 00:01:44;;;;;;;6.30;4.20;;;7.30;99.90;;;;;;4939503;29;20263;-94
2023/03/05 00:04:12;;;;;;;7.20;3.80;;;7.10;99.90;;;;;;4939833;29;20578;-89
2023/03/05 00:06:39;;;;;;;9.23;5.30;;;7.00;99.90;;;;;;4941275;28;20641;-90
2023/03/05 00:09:05;;;;;;;8.30;4.30;;;7.00;99.90;;;;;;4939681;29;20605;-92
2023/03/05 00:11:32;;;;;;;7.80;4.33;;;7.10;99.90;;;;;;4942461;29;20240;-89
2023/03/05 00:14:02;;;;;;;6.40;3.93;;;7.30;99.90;;;;;;4952288;29;20179;-89
2023/03/05 00:16:34;;;;;;;8.00;3.83;;;7.30;99.90;;;;;;4947364;29;20188;-89
2023/03/05 00:19:01;;;;;;;8.33;3.23;;;7.30;99.90;;;;;;4945145;29;20173;-91
2023/03/05 00:21:35;;;;;;;7.30;4.17;;;7.30;99.90;;;;;;4942634;29;20180;-90
2023/03/05 00:24:05;;;;;;;6.77;3.20;;;7.00;99.90;;;;;;4940046;29;20181;-91
2023/03/05 00:26:33;;;;;;;5.97;3.33;;;6.90;99.90;;;;;;4939935;29;20245;-90
2023/03/05 00:28:59;;;;;;;10.53;4.20;;;6.80;99.90;;;;;;4931735;29;20260;-89
2023/03/05 00:31:32;;;;;;;5.43;3.50;;;6.60;99.90;;;;;;4952982;29;20219;-90
2023/03/05 00:34:01;;;;;;;6.87;3.17;;;6.80;99.90;;;;;;4947303;29;20196;-89
2023/03/05 00:36:30;;;;;;;8.17;3.93;;;6.80;99.90;;;;;;4943800;29;20189;-92
2023/03/05 00:38:57;;;;;;;6.43;3.50;;;6.90;99.90;;;;;;4941517;29;20187;-91
2023/03/05 00:41:26;;;;;;;6.47;3.93;;;7.00;99.90;;;;;;4938890;29;20271;-92
2023/03/05 00:43:52;;;;;;;7.07;3.50;;;6.70;99.90;;;;;;4938558;29;20173;-90
2023/03/05 00:46:26;;;;;;;5.43;3.30;;;6.70;99.90;;;;;;4938203;29;20630;-92
2023/03/05 00:48:55;;;;;;;10.53;3.60;;;6.60;99.90;;;;;;4938022;29;20673;-95
2023/03/05 00:51:21;;;;;;;8.73;3.43;;;6.50;99.90;;;;;;4938271;29;20212;-93
2023/03/05 00:53:47;;;;;;;6.30;3.60;;;6.40;99.90;;;;;;4937671;29;20537;-92
2023/03/05 00:56:13;;;;;;;6.57;3.40;;;6.40;99.90;;;;;;4941868;29;20240;-89
2023/03/05 00:58:39;;;;;;;10.07;3.47;;;6.30;99.90;;;;;;4943909;29;20295;-90
2023/03/05 01:01:05;;;;;;;9.20;3.60;;;6.30;99.90;;;;;;4941449;29;20263;-89
2023/03/05 01:03:32;;;;;;;8.90;3.43;;;6.30;99.90;;;;;;4948582;29;20204;-90
2023/03/05 01:05:59;;;;;;;7.63;3.63;;;6.40;99.90;;;;;;4950267;29;20197;-89
2023/03/05 01:08:26;;;;;;;6.37;3.53;;;6.40;99.90;;;;;;4947907;29;20208;-89
2023/03/05 01:10:53;;;;;;;6.40;3.00;;;6.40;99.90;;;;;;4945332;29;20221;-89
2023/03/05 01:13:19;;;;;;;7.30;3.20;;;6.30;99.90;;;;;;4953865;29;20185;-90
2023/03/05 01:16:00;;;;;;;6.03;3.13;;;6.40;99.90;;;;;;4944874;29;20646;-90
2023/03/05 01:18:26;;;;;;;6.07;3.40;;;6.40;99.90;;;;;;4938404;29;20541;-90
2023/03/05 01:20:52;;;;;;;8.17;4.27;;;6.50;99.90;;;;;;4937826;29;20177;-90
2023/03/05 01:23:20;;;;;;;6.53;3.87;;;6.40;99.90;;;;;;4941293;29;20184;-91
2023/03/05 01:25:51;;;;;;;6.83;3.80;;;6.40;99.90;;;;;;4940216;29;20711;-90
2023/03/05 01:28:17;;;;;;;6.60;3.20;;;6.50;99.90;;;;;;4940223;29;20185;-90
2023/03/05 01:30:42;;;;;;;6.37;3.13;;;6.60;99.90;;;;;;4940757;29;20215;-90
2023/03/05 01:33:08;;;;;;;7.07;3.80;;;6.40;99.90;;;;;;4940077;29;20188;-93
2023/03/05 01:35:34;;;;;;;8.30;3.00;;;6.60;99.90;;;;;;4940352;29;20185;-91
2023/03/05 01:38:05;;;;;;;6.13;3.27;;;6.60;99.90;;;;;;4940940;29;20184;-91
2023/03/05 01:40:34;;;;;;;7.53;3.83;;;6.60;99.90;;;;;;4940129;29;20236;-92
2023/03/05 01:43:28;;;;;;;8.10;4.00;;;6.60;99.90;;;;;;4940581;29;20236;-91
2023/03/05 01:46:22;;;;;;;8.03;3.20;;;6.70;99.90;;;;;;4949012;29;20168;-92
2023/03/05 01:48:55;;;;;;;6.87;3.10;;;6.80;99.90;;;;;;4949092;29;20590;-92
2023/03/05 01:51:25;;;;;;;7.67;3.43;;;6.70;99.90;;;;;;4941426;29;20213;-91
2023/03/05 01:53:53;;;;;;;6.60;4.07;;;6.70;99.90;;;;;;4950247;29;20188;-91
2023/03/05 01:56:19;;;;;;;8.83;4.17;;;6.80;99.90;;;;;;4959460;29;20184;-89
2023/03/05 01:58:45;;;;;;;9.20;3.60;;;6.80;99.90;;;;;;4954563;29;20201;-92
2023/03/05 02:01:12;;;;;;;7.83;4.27;;;6.70;99.90;;;;;;4950198;29;20587;-90
2023/03/05 02:03:38;;;;;;;8.03;3.60;;;6.80;99.90;;;;;;4946634;29;20181;-89
2023/03/05 02:06:10;;;;;;;7.80;3.27;;;6.70;99.90;;;;;;4950214;29;20197;-90
2023/03/05 02:08:36;;;;;;;10.50;3.57;;;6.70;99.90;;;;;;4954392;28;20188;-91
2023/03/05 02:11:04;;;;;;;6.37;3.53;;;6.70;99.90;;;;;;4960512;28;20212;-90
2023/03/05 02:13:33;;;;;;;7.37;3.77;;;6.40;99.90;;;;;;4962574;28;20177;-89
2023/03/05 02:16:01;;;;;;;7.00;4.10;;;6.50;99.90;;;;;;4951260;29;20191;-91
2023/03/05 02:18:30;;;;;;;7.53;3.87;;;6.40;99.90;;;;;;4944110;29;20173;-92
2023/03/05 02:20:57;;;;;;;12.13;4.00;;;6.30;99.90;;;;;;4939787;29;20549;-92
2023/03/05 02:23:28;;;;;;;6.90;3.50;;;6.40;99.90;;;;;;4939978;29;20181;-90
2023/03/05 02:25:53;;;;;;;7.67;3.67;;;6.20;99.90;;;;;;4940625;29;20204;-91
2023/03/05 02:28:36;;;;;;;11.07;4.20;;;6.30;99.90;;;;;;4939649;29;20233;-94
2023/03/05 02:31:07;;;;;;;6.47;3.47;;;6.50;99.90;;;;;;4938492;29;20208;-90
2023/03/05 02:33:33;;;;;;;6.90;3.43;;;6.50;99.90;;;;;;4938872;29;20252;-92
2023/03/05 02:35:59;;;;;;;7.23;3.97;;;6.60;99.90;;;;;;4938090;29;20582;-94
2023/03/05 02:38:25;;;;;;;11.23;4.07;;;6.70;99.90;;;;;;4939430;29;20185;-93
2023/03/05 02:40:51;;;;;;;6.30;3.60;;;6.80;99.90;;;;;;4939458;29;20187;-92
2023/03/05 02:43:16;;;;;;;7.50;4.00;;;6.80;99.90;;;;;;4953419;29;20201;-90
2023/03/05 02:45:42;;;;;;;8.17;3.60;;;6.80;99.90;;;;;;4958103;29;20184;-96
2023/03/05 02:48:08;;;;;;;7.80;3.80;;;6.80;99.90;;;;;;4955938;29;20185;-90
2023/03/05 02:50:34;;;;;;;7.67;4.00;;;6.60;99.90;;;;;;4957391;29;20193;-89
2023/03/05 02:53:02;;;;;;;8.93;3.90;;;6.50;99.90;;;;;;4954971;29;20240;-90
2023/03/05 02:55:30;;;;;;;9.93;4.30;;;6.40;99.90;;;;;;4943061;29;20181;-90
2023/03/05 02:57:56;;;;;;;8.57;4.23;;;6.40;99.90;;;;;;4938948;29;20174;-90
2023/03/05 03:00:23;;;;;;;8.30;4.70;;;6.40;99.90;;;;;;4938952;29;20220;-91
2023/03/05 03:02:49;;;;;;;10.00;5.17;;;6.40;99.90;;;;;;4954133;28;20218;-91
2023/03/05 03:05:17;;;;;;;9.13;5.20;;;6.20;99.90;;;;;;4939277;29;20193;-91
2023/03/05 03:07:44;;;;;;;8.90;5.47;;;6.20;99.90;;;;;;4938322;29;20212;-91
2023/03/05 03:10:11;;;;;;;10.10;6.40;;;6.20;99.90;;;;;;4939322;29;20192;-91
2023/03/05 03:12:38;;;;;;;9.70;5.50;;;6.20;99.90;;;;;;4937940;29;20248;-91
2023/03/05 03:15:04;;;;;;;9.57;5.70;;;6.20;99.90;;;;;;4938639;29;20180;-93
2023/03/05 03:17:33;;;;;;;9.33;5.83;;;6.10;99.90;;;;;;4938143;29;20181;-94
2023/03/05 03:20:00;;;;;;;14.00;5.80;;;6.10;99.90;;;;;;4939642;29;20555;-91
2023/03/05 03:22:25;;;;;;;12.70;6.27;;;6.30;99.90;;;;;;4939937;29;20272;-90
2023/03/05 03:24:51;;;;;;;11.27;6.13;;;6.40;99.90;;;;;;4946040;29;20208;-91
2023/03/05 03:27:17;;;;;;;8.70;6.20;;;6.20;99.90;;;;;;4950473;29;20178;-91
2023/03/05 03:29:42;;;;;;;10.93;6.50;;;6.20;99.90;;;;;;4958558;28;20177;-94
2023/03/05 03:32:08;;;;;;;11.17;5.87;;;6.40;99.90;;;;;;4958345;29;20277;-91
2023/03/05 03:34:33;;;;;;;9.47;5.90;;;6.30;99.90;;;;;;4957655;29;20177;-90
2023/03/05 03:36:59;;;;;;;9.87;6.70;;;6.40;99.90;;;;;;4946711;29;20224;-89
2023/03/05 03:39:25;;;;;;;10.60;6.40;;;6.50;99.90;;;;;;4944293;29;20177;-90
2023/03/05 03:41:55;;;;;;;9.87;5.73;;;6.50;99.90;;;;;;4944878;29;20204;-90
2023/03/05 03:44:21;;;;;;;10.50;6.70;;;6.60;99.90;;;;;;4938543;29;20189;-92
2023/03/05 03:46:49;;;;;;;10.90;6.07;;;6.60;99.90;;;;;;4938199;29;20169;-91
2023/03/05 03:49:21;;;;;;;14.03;6.53;;;6.50;99.90;;;;;;4937705;29;20173;-91
2023/03/05 03:51:47;;;;;;;10.10;6.00;;;6.50;99.90;;;;;;4938466;29;20209;-91
2023/03/05 03:54:14;;;;;;;10.03;6.73;;;6.70;99.90;;;;;;4937747;29;20591;-92
2023/03/05 03:56:40;;;;;;;10.83;7.23;;;6.60;99.90;;;;;;4938393;29;20176;-91
2023/03/05 03:59:06;;;;;;;11.53;7.33;;;6.60;99.90;;;;;;4938227;29;20224;-90
2023/03/05 04:01:31;;;;;;;10.77;7.00;;;6.50;99.90;;;;;;4937759;29;20180;-91
2023/03/05 04:03:57;;;;;;;10.07;7.03;;;6.50;99.90;;;;;;4938713;29;20224;-92
2023/03/05 04:06:24;;;;;;;12.70;7.50;;;6.40;99.90;;;;;;4940790;29;20299;-91
2023/03/05 04:08:49;;;;;;;14.23;7.03;;;6.40;99.90;;;;;;4948408;29;20246;-91
2023/03/05 04:11:18;;;;;;;14.03;7.70;;;6.40;99.90;;;;;;4949348;29;20235;-90
2023/03/05 04:13:44;;;;;;;12.00;7.70;;;6.30;99.90;;;;;;4942617;29;20189;-91
2023/03/05 04:16:13;;;;;;;14.40;7.93;;;6.30;99.90;;;;;;4944899;28;20241;-93
2023/03/05 04:18:40;;;;;;;11.57;8.00;;;6.30;99.90;;;;;;4945568;28;20192;-90
2023/03/05 04:21:07;;;;;;;12.07;8.30;;;6.10;99.90;;;;;;4937613;29;20188;-90
2023/03/05 04:23:33;;;;;;;14.70;8.20;;;6.00;99.90;;;;;;4936512;29;20255;-90
2023/03/05 04:25:59;;;;;;;15.07;8.77;;;6.10;99.90;;;;;;4937211;29;20220;-91
2023/03/05 04:28:25;;;;;;;11.63;8.23;;;6.10;99.90;;;;;;4938257;29;20224;-93
2023/03/05 04:30:52;;;;;;;14.13;8.30;;;6.10;99.90;;;;;;4942072;29;20240;-93
2023/03/05 04:33:18;;;;;;;16.87;9.60;;;6.20;99.90;;;;;;4945600;29;20177;-92
2023/03/05 04:35:45;;;;;;;13.13;8.90;;;6.10;99.90;;;;;;4951200;29;20161;-90
2023/03/05 04:38:11;;;;;;;14.47;9.20;;;6.10;99.90;;;;;;4957208;28;20181;-94
2023/03/05 04:40:40;;;;;;;16.80;8.80;;;6.10;99.90;;;;;;4957338;28;20189;-90
2023/03/05 04:43:10;;;;;;;12.30;9.27;;;6.20;99.90;;;;;;4941725;29;20177;-93
2023/03/05 04:45:41;;;;;;;13.67;9.40;;;6.20;99.90;;;;;;4942853;29;20176;-89
2023/03/05 04:48:11;;;;;;;14.43;9.97;;;6.20;99.90;;;;;;4956980;29;20177;-91
2023/03/05 04:50:37;;;;;;;15.47;10.40;;;6.20;99.90;;;;;;4951562;28;20184;-91
2023/03/05 04:53:04;;;;;;;15.67;10.97;;;6.20;99.90;;;;;;4939764;29;20182;-90
2023/03/05 04:55:33;;;;;;;14.50;10.70;;;6.20;99.90;;;;;;4944137;29;20169;-90
2023/03/05 04:58:08;;;;;;;15.37;10.17;;;6.10;99.90;;;;;;4941338;29;20665;-90
2023/03/05 05:00:35;;;;;;;13.97;10.00;;;6.00;99.90;;;;;;4942121;29;20196;-94
2023/03/05 05:03:02;;;;;;;14.87;10.23;;;5.90;99.90;;;;;;4951936;29;20196;-90
2023/03/05 05:05:28;;;;;;;11.83;8.50;;;5.90;99.90;;;;;;4947377;29;20220;-90
2023/03/05 05:07:55;;;;;;;14.83;10.17;;;6.00;99.90;;;;;;4940507;29;20180;-90
2023/03/05 05:10:20;;;;;;;12.57;9.40;;;6.00;99.90;;;;;;4936041;29;20266;-92
2023/03/05 05:12:47;;;;;;;12.53;9.17;;;6.00;99.90;;;;;;4935931;29;20586;-91
2023/03/05 05:15:13;;;;;;;13.37;9.00;;;6.10;99.90;;;;;;4942589;29;20519;-91
2023/03/05 05:17:38;;;;;;;12.77;9.67;;;6.00;99.90;;;;;;4938416;29;20207;-90
2023/03/05 05:20:07;;;;;;;15.23;10.83;;;6.10;99.90;;;;;;4938137;29;20176;-91
2023/03/05 05:22:34;;;;;;;16.77;10.63;;;5.90;99.90;;;;;;4946783;29;20199;-89
2023/03/05 05:25:00;;;;;;;13.87;9.87;;;5.90;99.90;;;;;;4946657;29;20184;-89
2023/03/05 05:27:25;;;;;;;15.60;10.30;;;5.90;99.90;;;;;;4944909;29;20290;-91
2023/03/05 05:29:51;;;;;;;13.87;10.63;;;5.90;99.90;;;;;;4935919;29;20628;-91
2023/03/05 05:32:21;;;;;;;13.40;10.33;;;5.90;99.90;;;;;;4953034;29;20231;-90
2023/03/05 05:34:52;;;;;;;13.30;10.10;;;5.90;99.90;;;;;;4954947;29;20165;-90
2023/03/05 05:37:17;;;;;;;14.30;10.17;;;5.80;99.90;;;;;;4949253;29;20177;-90
2023/03/05 05:39:48;;;;;;;17.20;10.90;;;5.80;99.90;;;;;;4935586;29;20189;-90
2023/03/05 05:42:20;;;;;;;13.50;9.90;;;5.80;99.90;;;;;;4937783;29;20181;-90
2023/03/05 05:44:49;;;;;;;11.70;9.33;;;5.90;99.90;;;;;;4937410;29;20578;-91
2023/03/05 05:47:17;;;;;;;15.43;10.43;;;5.90;99.90;;;;;;4945695;29;20177;-90
2023/03/05 05:49:52;;;;;;;14.80;10.17;;;6.00;99.90;;;;;;4938097;29;20181;-89
2023/03/05 05:52:17;;;;;;;13.23;9.47;;;5.90;99.90;;;;;;4935898;29;20216;-92
2023/03/05 05:54:43;;;;;;;13.67;9.97;;;6.10;99.90;;;;;;4936491;29;20258;-92
2023/03/05 05:57:11;;;;;;;15.00;9.93;;;5.80;99.90;;;;;;4936578;29;20186;-89
2023/03/05 05:59:37;;;;;;;11.70;9.00;;;5.90;99.90;;;;;;4936521;29;20177;-90
2023/03/05 06:02:03;;;;;;;13.70;10.27;;;5.90;99.90;;;;;;4935519;29;20700;-91
2023/03/05 06:04:29;;;;;;;12.37;8.90;;;5.90;99.90;;;;;;4936368;29;20186;-89
2023/03/05 06:06:55;;;;;;;11.83;9.43;;;6.00;99.90;;;;;;4937956;29;20260;-91
2023/03/05 06:09:21;;;;;;;12.07;9.07;;;5.90;99.90;;;;;;4938859;29;20208;-92
2023/03/05 06:11:47;;;;;;;13.20;9.37;;;6.00;99.90;;;;;;4938179;29;20667;-91
2023/03/05 06:14:13;;;;;;;12.63;9.87;;;6.10;99.90;;;;;;4939076;29;20184;-91
2023/03/05 06:16:39;;;;;;;11.53;9.47;;;6.10;99.90;;;;;;4939339;29;20185;-93
2023/03/05 06:19:05;;;;;;;13.00;9.40;;;6.00;99.90;;;;;;4940970;29;20181;-90
2023/03/05 06:21:31;;;;;;;14.73;9.53;;;6.00;99.90;;;;;;4939464;29;20732;-91
2023/03/05 06:23:57;;;;;;;15.30;10.70;;;5.70;99.90;;;;;;4939982;29;20177;-91
2023/03/05 06:26:24;;;;;;;13.00;9.93;;;5.60;99.90;;;;;;4943304;29;20173;-90
2023/03/05 06:28:50;;;;;;;15.53;11.27;;;5.60;99.90;;;;;;4940989;29;20808;-91
2023/03/05 06:31:20;;;;;;;17.20;10.90;;;5.50;99.90;;;;;;4939492;29;20240;-91
2023/03/05 06:33:56;;;;;;;16.17;11.03;;;5.50;99.90;;;;;;4939651;29;20590;-91
2023/03/05 06:36:23;;;;;;;15.20;10.73;;;5.60;99.90;;;;;;4943942;29;20184;-94
2023/03/05 06:38:50;;;;;;;18.73;11.37;;;5.50;99.90;;;;;;4938921;29;20200;-91
2023/03/05 06:41:20;;;;;;;14.37;10.63;;;5.50;99.90;;;;;;4939454;29;20173;-94
2023/03/05 06:43:47;;;;;;;17.63;11.77;;;5.50;99.90;;;;;;4938551;29;20188;-92
2023/03/05 06:46:15;;;;;;;17.10;10.60;;;5.50;99.90;;;;;;4933521;29;20206;-90
2023/03/05 06:48:45;;;;;;;16.40;11.00;;;5.40;99.90;;;;;;4926348;29;20726;-91
2023/03/05 06:51:23;;;;;;;12.77;8.90;;;5.40;99.90;;;;;;4920901;29;20272;-91
2023/03/05 06:53:51;;;;;;;15.60;9.73;;;5.40;99.90;;;;;;4920691;29;20219;-91
2023/03/05 06:56:20;;;;;;;17.00;10.20;;;5.50;99.90;;;;;;4921139;29;20185;-90
2023/03/05 06:58:48;;;;;;;16.27;12.13;;;5.50;99.90;;;;;;4919701;29;20281;-89
2023/03/05 07:01:14;;;;;;;13.33;10.63;;;5.60;99.90;;;;;;4938256;29;20200;-91
2023/03/05 07:03:41;;;;;;;16.33;11.53;;;5.50;99.90;;;;;;4940545;29;20197;-90
2023/03/05 07:06:12;;;;;;;19.23;11.70;;;5.60;99.90;;;;;;4934497;29;20201;-90
2023/03/05 07:08:51;;;;;;;18.40;12.17;;;5.50;99.90;;;;;;4926933;29;20256;-92
2023/03/05 07:11:19;;;;;;;16.50;11.03;;;5.60;99.90;;;;;;4924436;29;20224;-89
2023/03/05 07:13:49;;;;;;;15.50;11.13;;;5.60;99.90;;;;;;4910208;29;20182;-92
2023/03/05 07:16:19;;;;;;;15.80;10.40;;;5.60;99.90;;;;;;4934023;29;20185;-89
2023/03/05 07:18:45;;;;;;;14.30;10.17;;;5.60;99.90;;;;;;4934696;29;20184;-89
2023/03/05 07:21:16;;;;;;;14.03;9.97;;;5.60;99.90;;;;;;4932672;29;20202;-91
2023/03/05 07:23:45;;;;;;;13.30;9.83;;;5.50;99.90;;;;;;4930389;29;20177;-89
2023/03/05 07:26:13;;;;;;;12.83;8.87;;;5.60;99.90;;;;;;4927781;29;20173;-92
2023/03/05 07:28:39;;;;;;;13.30;9.40;;;5.60;99.90;;;;;;4925165;29;20174;-91
2023/03/05 07:31:16;;;;;;;13.20;8.40;;;5.50;99.90;;;;;;4926599;29;20210;-91
2023/03/05 07:33:42;;;;;;;13.30;9.60;;;5.60;99.90;;;;;;4926017;29;20537;-90
2023/03/05 07:36:10;;;;;;;10.80;8.40;;;5.70;99.90;;;;;;4924576;29;20186;-90
2023/03/05 07:38:36;;;;;;;12.17;7.93;;;5.60;99.90;;;;;;4933417;29;20187;-90
2023/03/05 07:41:09;;;;;;;12.20;8.50;;;5.60;99.90;;;;;;4927833;29;20657;-89
2023/03/05 07:43:42;;;;;;;11.60;8.33;;;5.50;99.90;;;;;;4923798;29;20184;-90
2023/03/05 07:46:13;;;;;;;10.63;8.33;;;5.80;99.90;;;;;;4922711;29;20209;-89
2023/03/05 07:48:38;;;;;;;9.90;7.30;;;5.80;99.90;;;;;;4923731;29;20188;-89
2023/03/05 07:51:08;;;;;;;10.57;7.97;;;5.80;98.90;;;;;;4924413;29;20596;-90
2023/03/05 07:53:35;;;;;;;11.47;7.33;;;5.80;98.60;;;;;;4928240;29;20173;-90
2023/03/05 07:56:01;;;;;;;10.73;7.43;;;5.60;98.30;;;;;;4936494;29;20178;-87
2023/03/05 07:58:29;;;;;;;8.37;6.57;;;5.70;99.70;;;;;;4940348;29;20158;-91
2023/03/05 08:00:55;;;;;;;10.53;7.60;;;5.70;99.90;;;;;;4940436;29;20170;-92
2023/03/05 08:03:20;;;;;;;11.07;6.90;;;5.70;99.90;;;;;;4935762;29;20189;-89
2023/03/05 08:05:46;;;;;;;10.07;6.90;;;5.70;99.90;;;;;;4926489;29;20292;-92
2023/03/05 08:08:12;;;;;;;10.10;7.17;;;5.70;98.30;;;;;;4923605;29;20185;-90
2023/03/05 08:10:38;;;;;;;8.33;6.90;;;5.80;99.10;;;;;;4920027;29;20166;-92
2023/03/05 08:13:26;;;;;;;10.53;7.73;;;5.80;98.40;;;;;;4920932;29;20268;-91
2023/03/05 08:16:51;;;;;;;9.83;7.90;;;5.90;97.60;;;;;;4923688;29;20189;-91
2023/03/05 08:19:20;;;;;;;10.03;7.53;;;5.90;96.70;;;;;;4921868;29;20174;-91
2023/03/05 08:21:47;;;;;;;10.03;8.00;;;6.10;95.90;;;;;;4934100;29;20191;-88
2023/03/05 08:24:13;;;;;;;9.60;7.70;;;6.00;94.70;;;;;;4939885;29;20169;-89
2023/03/05 08:26:41;;;;;;;9.53;8.07;;;6.10;94.20;;;;;;4936754;29;20173;-86
2023/03/05 08:29:10;;;;;;;9.57;7.90;;;6.10;92.50;;;;;;4937102;29;20181;-90
2023/03/05 08:31:37;;;;;;;9.93;7.60;;;6.00;92.60;;;;;;4938862;29;20211;-90
2023/03/05 08:34:05;;;;;;;10.30;7.97;;;6.00;93.70;;;;;;4937904;29;20208;-89
2023/03/05 08:36:31;;;;;;;8.67;7.60;;;6.00;93.80;;;;;;4938289;29;20189;-89
2023/03/05 08:38:58;;;;;;;10.47;8.10;;;6.20;93.30;;;;;;4938545;29;20236;-89
2023/03/05 08:41:24;;;;;;;10.90;8.30;;;6.30;91.70;;;;;;4938828;29;20200;-94
2023/03/05 08:43:50;;;;;;;9.93;8.13;;;6.00;92.10;;;;;;4940573;29;20179;-91
2023/03/05 08:46:16;;;;;;;9.37;8.20;;;6.10;93.50;;;;;;4940440;29;20188;-89
2023/03/05 08:48:42;;;;;;;11.60;9.13;;;6.20;93.20;;;;;;4940600;29;20181;-89
2023/03/05 08:51:12;;;;;;;11.17;9.33;;;6.40;93.80;;;;;;4934831;29;20257;-92
2023/03/05 08:53:42;;;;;;;9.80;8.37;;;6.40;92.60;;;;;;4939603;29;20216;-90
2023/03/05 08:56:09;;;;;;;11.20;8.37;;;6.60;92.30;;;;;;4938087;28;20172;-90
2023/03/05 08:58:36;;;;;;;9.03;8.13;;;6.80;87.90;;;;;;4922197;29;20215;-89
2023/03/05 09:01:02;;;;;;;8.77;7.03;;;6.90;77.20;;;;;;4938220;28;20665;-88
2023/03/05 09:03:28;;;;;;;8.83;6.90;;;6.80;73.70;;;;;;4935240;28;20169;-89
2023/03/05 09:06:03;;;;;;;8.73;6.80;;;6.80;72.60;;;;;;4926152;29;20197;-88
2023/03/05 09:08:29;;;;;;;10.30;7.20;;;6.80;65.20;;;;;;4928875;29;20185;-89
2023/03/05 09:10:56;;;;;;;10.37;7.57;;;6.70;65.00;;;;;;4939917;29;20180;-89
2023/03/05 09:13:22;;;;;;;8.83;7.47;;;6.70;61.20;;;;;;4939253;28;20261;-87
2023/03/05 09:15:59;;;;;;;8.77;7.33;;;6.60;62.30;;;;;;4937281;29;20181;-90
2023/03/05 09:18:26;;;;;;;11.67;8.03;;;6.60;62.60;;;;;;4937532;29;20180;-91
2023/03/05 09:20:52;;;;;;;9.90;7.90;;;6.50;65.80;;;;;;4936646;29;20212;-88
2023/03/05 09:23:18;;;;;;;7.93;5.70;;;6.40;70.30;;;;;;4949123;29;20197;-88
2023/03/05 09:25:44;;;;;;;9.23;7.53;;;6.50;73.20;;;;;;4936365;29;20684;-86
2023/03/05 09:28:15;;;;;;;7.83;7.03;;;6.60;70.00;;;;;;4937249;29;20212;-88
2023/03/05 09:30:40;;;;;;;12.87;7.40;;;6.70;67.90;;;;;;4936929;29;20217;-91
2023/03/05 09:33:06;;;;;;;7.47;5.90;;;6.70;64.60;;;;;;4916063;29;20173;-88
2023/03/05 09:35:36;;;;;;;9.17;7.13;;;6.50;61.00;;;;;;4928431;29;20174;-88
2023/03/05 09:38:03;;;;;;;9.00;7.27;;;6.50;66.70;;;;;;4925833;29;20240;-87
2023/03/05 09:41:06;;;;;;;11.13;8.20;;;6.60;64.50;;;;;;4926531;29;20276;-90
2023/03/05 09:43:34;;;;;;;9.83;8.30;;;6.50;61.00;;;;;;4938893;29;20533;-89
2023/03/05 09:46:28;;;;;;;13.03;9.17;;;6.50;57.40;;;;;;4937852;28;20177;-90
2023/03/05 09:49:19;;;;;;;11.13;8.73;;;6.40;57.00;;;;;;4917152;29;20213;-91
2023/03/05 09:51:50;;;;;;;9.43;6.63;;;6.20;63.50;;;;;;4914671;29;20214;-90
2023/03/05 09:54:38;;;;;;;9.43;7.33;;;6.10;67.90;;;;;;4906431;29;20170;-91
2023/03/05 09:57:12;;;;;;;5.73;5.13;;;6.00;75.00;;;;;;4930079;29;20192;-86
2023/03/05 09:59:56;;;;;;;7.80;5.17;;;5.80;70.30;;;;;;4942345;29;20213;-87
2023/03/05 10:02:39;;;;;;;6.00;4.70;;;5.90;77.50;;;;;;4899894;29;20655;-87
2023/03/05 10:05:27;;;;;;;7.23;5.90;;;5.60;80.00;;;;;;4900111;29;20210;-94
2023/03/05 10:07:57;;;;;;;7.90;7.10;;;5.70;83.80;;;;;;4901432;29;20186;-89
2023/03/05 10:10:42;;;;;;;8.17;7.13;;;5.80;82.50;;;;;;4902411;29;20182;-89
2023/03/05 10:13:23;;;;;;;8.93;7.47;;;5.90;83.30;;;;;;4928425;29;20284;-89
2023/03/05 10:16:23;;;;;;;8.90;6.53;;;5.70;80.40;;;;;;4916263;29;20659;-88
2023/03/05 10:19:03;;;;;;;10.20;7.47;;;5.60;84.60;;;;;;4928416;29;20177;-91
2023/03/05 10:21:44;;;;;;;4.83;3.43;;;5.60;83.00;;;;;;4920151;29;20749;-88
2023/03/05 10:24:37;;;;;;;4.20;2.37;;;5.30;70.10;;;;;;4925083;29;20193;-89
2023/03/05 10:27:55;;;;;;;;;;;;;;;;;;;;;
2023/03/05 10:31:00;;;;;;;6.67;4.80;;;5.30;76.30;;;;;;4914345;29;20280;-88
2023/03/05 10:33:53;;;;;;;4.60;3.50;;;5.60;77.70;;;;;;4916245;29;20202;-90
2023/03/05 10:36:25;;;;;;;4.33;2.87;;;5.70;70.40;;;;;;4929293;29;20175;-87
2023/03/05 10:39:25;;;;;;;5.10;2.97;;;5.80;61.10;;;;;;4917561;29;20185;-89
2023/03/05 10:42:23;;;;;;;4.07;2.40;;;5.70;57.60;;;;;;4913161;29;20183;-87
2023/03/05 10:45:08;;;;;;;5.90;2.93;;;5.70;59.70;;;;;;4926627;29;20181;-88
2023/03/05 10:48:24;;;;;;;5.50;2.70;;;5.90;60.50;;;;;;4926826;29;20174;-91
2023/03/05 10:50:58;;;;;;;6.20;3.33;;;5.90;57.40;;;;;;4919849;29;20264;-89
2023/03/05 10:53:39;;;;;;;5.53;3.60;;;6.30;56.20;;;;;;4915443;29;20170;-89
2023/03/05 10:56:06;;;;;;;4.43;2.80;;;6.30;51.00;;;;;;4903639;29;20188;-87
2023/03/05 10:58:40;;;;;;;4.03;2.60;;;6.30;44.90;;;;;;4902287;29;20570;-88
2023/03/05 11:01:09;;;;;;;4.20;2.73;;;6.40;46.20;;;;;;4908324;29;20661;-88
2023/03/05 11:04:26;;;;;;;4.33;2.63;;;6.30;92.90;;;;;;4908948;29;20177;-87
2023/03/05 11:06:57;;;;;;;4.00;2.23;;;6.50;99.90;;;;;;4891497;29;20246;-88
2023/03/05 11:09:31;;;;;;;3.57;2.20;;;6.70;99.90;;;;;;4912307;29;20178;-89
2023/03/05 11:12:05;;;;;;;3.67;2.33;;;6.90;99.90;;;;;;4935795;29;20194;-88
2023/03/05 11:14:33;;;;;;;4.50;2.50;;;6.90;99.90;;;;;;4929288;29;20237;-89
2023/03/05 11:17:02;;;;;;;5.07;3.43;;;7.00;99.90;;;;;;4930579;29;20190;-88
2023/03/05 11:19:34;;;;;;;6.60;3.90;;;7.10;99.90;;;;;;4920177;29;20206;-87
2023/03/05 11:22:19;;;;;;;5.83;3.33;;;7.20;99.90;;;;;;4917738;29;20190;-88
2023/03/05 11:25:20;;;;;;;5.13;2.60;;;7.30;14.00;;;;;;4914208;29;20253;-88
2023/03/05 11:27:55;;;;;;;5.40;2.73;;;7.30;10.10;;;;;;4914190;29;20206;-91
2023/03/05 11:30:28;;;;;;;4.90;2.60;;;7.40;10.80;;;;;;4920732;29;20181;-87
2023/03/05 11:33:08;;;;;;;5.07;3.33;;;7.40;9.30;;;;;;4910393;29;20221;-88
2023/03/05 11:35:42;;;;;;;4.33;2.80;;;7.40;9.10;;;;;;4924603;29;20180;-90
2023/03/05 11:38:29;;;;;;;4.80;3.20;;;7.20;2.70;;;;;;4934406;29;20360;-88
2023/03/05 11:41:02;;;;;;;4.67;2.40;;;7.30;7.50;;;;;;4919333;29;20162;-86
2023/03/05 11:43:29;;;;;;;5.33;3.27;;;7.20;99.90;;;;;;4919082;29;20252;-87
2023/03/05 11:46:00;;;;;;;6.73;3.20;;;7.20;99.90;;;;;;4918289;29;20185;-87
2023/03/05 11:48:33;;;;;;;4.03;3.00;;;7.10;99.90;;;;;;4918610;29;20188;-87
2023/03/05 11:51:07;;;;;;;5.83;3.93;;;7.10;99.90;;;;;;4918175;29;20177;-92
2023/03/05 11:53:35;;;;;;;6.00;4.03;;;6.90;99.90;;;;;;4917959;29;20531;-89
2023/03/05 11:56:24;;;;;;;5.27;3.90;;;7.30;99.90;;;;;;4919633;29;20150;-88
2023/03/05 11:59:04;;;;;;;6.97;4.67;;;7.20;99.90;;;;;;4917128;29;20326;-91
2023/03/05 12:01:33;;;;;;;6.17;5.27;;;7.20;99.90;;;;;;4917734;29;20292;-87
2023/03/05 12:03:59;;;;;;;7.37;5.67;;;7.20;99.90;;;;;;4919382;29;20237;-89
2023/03/05 12:06:47;;;;;;;7.37;6.20;;;7.10;99.90;;;;;;4918269;29;20193;-89
2023/03/05 12:09:36;;;;;;;8.63;6.60;;;7.20;99.90;;;;;;4926158;29;20185;-89
2023/03/05 12:12:41;;;;;;;9.37;7.53;;;7.30;99.90;;;;;;4911333;29;20214;-87
2023/03/05 12:15:58;;;;;;;9.67;7.60;;;7.60;99.90;;;;;;4899721;29;20245;-86
2023/03/05 12:18:59;;;;;;;8.73;7.60;;;7.40;99.90;;;;;;4903201;29;20228;-90
2023/03/05 12:21:40;;;;;;;9.87;8.63;;;7.50;99.90;;;;;;4902989;29;20182;-87
2023/03/05 12:24:48;;;;;;;9.70;8.73;;;7.30;99.90;;;;;;4900007;29;20182;-91
2023/03/05 12:27:34;;;;;;;9.57;8.57;;;7.50;99.90;;;;;;4900050;29;20225;-90
2023/03/05 12:30:00;;;;;;;8.00;7.20;;;7.50;99.90;;;;;;4897219;29;20193;-90
2023/03/05 12:32:32;;;;;;;9.47;7.80;;;7.40;99.90;;;;;;4897534;29;20277;-91
2023/03/05 12:35:21;;;;;;;9.23;8.10;;;7.10;26.60;;;;;;4897730;29;20174;-88
2023/03/05 12:37:49;;;;;;;7.03;6.33;;;7.20;32.50;;;;;;4897897;29;20190;-90
2023/03/05 12:40:22;;;;;;;8.03;6.40;;;7.20;29.10;;;;;;4900423;29;20175;-89
2023/03/05 12:42:58;;;;;;;7.47;6.73;;;7.20;24.60;;;;;;4899221;29;20193;-88
2023/03/05 12:45:29;;;;;;;7.90;6.43;;;7.20;17.40;;;;;;4898197;29;20178;-89
2023/03/05 12:47:55;;;;;;;5.83;5.23;;;7.20;17.10;;;;;;4899227;29;20269;-88
2023/03/05 12:50:27;;;;;;;7.47;5.97;;;7.10;21.70;;;;;;4898643;29;20182;-89
2023/03/05 12:52:55;;;;;;;6.70;5.50;;;6.70;29.90;;;;;;4902451;29;20217;-87
2023/03/05 12:55:38;;;;;;;7.40;4.43;;;6.70;35.20;;;;;;4905109;29;20178;-90
2023/03/05 12:58:26;;;;;;;5.87;3.47;;;6.40;29.00;;;;;;4903392;29;20322;-88
2023/03/05 13:01:01;;;;;;;2.83;1.60;;;6.50;25.40;;;;;;4899516;29;20710;-88
2023/03/05 13:03:31;;;;;;;3.50;1.60;;;6.40;99.90;;;;;;4901275;29;20271;-89
2023/03/05 13:05:59;;;;;;;2.80;1.80;;;6.40;99.90;;;;;;4898894;29;20297;-89
2023/03/05 13:08:39;;;;;;;3.80;2.63;;;6.40;99.90;;;;;;4897859;29;20226;-89
2023/03/05 13:11:11;;;;;;;4.63;2.80;;;6.40;99.90;;;;;;4897369;29;20181;-89
2023/03/05 13:13:42;;;;;;;3.20;1.80;;;6.30;99.90;;;;;;4897906;29;20289;-89
2023/03/05 13:16:30;;;;;;;2.20;1.40;;;6.20;99.90;;;;;;4900739;29;20647;-88